Time;durP1;ratioP1;P1;durP2;ratioP2;P2;SDS_P1;SDS_P2;PMS_P1;PMS_P2;Temp;Humidity;BMP_temperature;BMP_pressure;BME280_temperature;BME280_humidity;BME280_pressure;Samples;Min_cycle;Max_cycle;Signal;HPM_P1;HPM_P2
2021/09/02 00:00:14;;;;;;;;;;;;;;;20.72;52.54;96526.22;1048812;28;1216;-54
2021/09/02 00:00:44;;;;;;;;;;;;;;;20.71;52.47;96520.16;1047845;28;1320;-56
2021/09/02 00:01:15;;;;;;;;;;;;;;;20.72;52.64;96523.59;1047588;28;2060;-54
2021/09/02 00:01:45;;;;;;;;;;;;;;;20.70;52.65;96523.84;1048214;28;1186;-54
2021/09/02 00:02:15;;;;;;;;;;;;;;;20.71;52.84;96522.78;1048294;28;1304;-56
2021/09/02 00:02:45;;;;;;;;;;;;;;;20.70;52.52;96521.22;1048461;28;1245;-56
2021/09/02 00:03:16;;;;;;;;;;;;;;;20.71;52.49;96522.00;1048571;28;1211;-53
2021/09/02 00:03:46;;;;;;;;;;;;;;;20.71;52.51;96525.41;1046232;28;1604;-53
2021/09/02 00:04:16;;;;;;;;;;;;;;;20.70;52.51;96523.84;1048799;28;1217;-55
2021/09/02 00:04:46;;;;;;;;;;;;;;;20.70;52.63;96523.03;1048441;28;1363;-54
2021/09/02 00:05:17;;;;;;;;;;;;;;;20.72;52.57;96520.94;1048545;28;1247;-52
2021/09/02 00:05:47;;;;;;;;;;;;;;;20.72;52.77;96520.94;1048281;28;1344;-54
2021/09/02 00:06:17;;;;;;;;;;;;;;;20.72;52.60;96516.47;1041767;28;1995;-56
2021/09/02 00:06:48;;;;;;;;;;;;;;;20.72;52.44;96520.94;1046181;28;1992;-54
2021/09/02 00:07:20;;;;;;;;;;;;;;;20.73;52.62;96523.31;1048503;28;1229;-53
2021/09/02 00:07:50;;;;;;;;;;;;;;;20.72;52.62;96516.47;1048127;28;1167;-55
2021/09/02 00:08:20;;;;;;;;;;;;;;;20.73;52.77;96519.91;1048091;28;1279;-52
2021/09/02 00:08:51;;;;;;;;;;;;;;;20.72;52.29;96519.13;1047025;28;2169;-54
2021/09/02 00:09:21;;;;;;;;;;;;;;;20.73;52.31;96517.28;1048248;28;1059;-56
2021/09/02 00:09:51;;;;;;;;;;;;;;;20.72;52.46;96516.47;1048677;28;1146;-54
2021/09/02 00:10:22;;;;;;;;;;;;;;;20.72;52.43;96515.69;1048395;28;1180;-52
2021/09/02 00:10:52;;;;;;;;;;;;;;;20.72;52.55;96519.13;1048617;28;1091;-55
2021/09/02 00:11:23;;;;;;;;;;;;;;;20.72;52.66;96520.94;1048690;28;1295;-53
2021/09/02 00:11:53;;;;;;;;;;;;;;;20.72;52.63;96513.03;1047778;28;2043;-55
2021/09/02 00:12:23;;;;;;;;;;;;;;;20.71;52.78;96514.88;1048380;28;1291;-53
2021/09/02 00:12:54;;;;;;;;;;;;;;;20.71;52.72;96509.59;1048227;28;1291;-50
2021/09/02 00:13:27;;;;;;;;;;;;;;;20.73;52.64;96512.00;1047622;28;2067;-55
2021/09/02 00:14:12;;;;;;;;;;;;;;;20.71;52.54;96509.59;1044256;28;1170;-56
2021/09/02 00:14:49;;;;;;;;;;;;;;;20.71;52.64;96508.84;1042976;28;1289;-54
2021/09/02 00:15:19;;;;;;;;;;;;;;;20.72;52.38;96505.94;1043307;28;1728;-54
2021/09/02 00:15:49;;;;;;;;;;;;;;;20.72;52.47;96505.94;1044850;28;1226;-51
2021/09/02 00:16:20;;;;;;;;;;;;;;;20.72;52.39;96507.78;1048460;28;1162;-56
2021/09/02 00:16:50;;;;;;;;;;;;;;;20.71;52.52;96499.06;1046764;28;2061;-55
2021/09/02 00:17:20;;;;;;;;;;;;;;;20.72;52.58;96508.56;1048234;28;1276;-55
2021/09/02 00:17:51;;;;;;;;;;;;;;;20.71;52.42;96506.97;1043980;28;1155;-56
2021/09/02 00:18:21;;;;;;;;;;;;;;;20.71;52.45;96503.56;1044041;28;1957;-54
2021/09/02 00:18:51;;;;;;;;;;;;;;;20.71;52.35;96506.97;1043803;28;1207;-54
2021/09/02 00:19:22;;;;;;;;;;;;;;;20.72;52.27;96505.94;1044314;28;1280;-52
2021/09/02 00:19:52;;;;;;;;;;;;;;;20.72;52.33;96507.78;1048720;28;1095;-54
2021/09/02 00:20:22;;;;;;;;;;;;;;;20.72;52.57;96507.78;1048611;28;1220;-56
2021/09/02 00:20:53;;;;;;;;;;;;;;;20.71;52.25;96501.72;1048344;28;1173;-54
2021/09/02 00:21:23;;;;;;;;;;;;;;;20.72;52.43;96510.41;1048690;28;1227;-51
2021/09/02 00:21:53;;;;;;;;;;;;;;;20.71;52.48;96501.72;1047528;28;2071;-51
2021/09/02 00:22:24;;;;;;;;;;;;;;;20.72;52.77;96505.94;1047735;28;2044;-52
2021/09/02 00:22:54;;;;;;;;;;;;;;;20.71;52.40;96506.97;1048453;28;1154;-55
2021/09/02 00:23:25;;;;;;;;;;;;;;;20.71;52.28;96495.66;1048096;28;1797;-54
2021/09/02 00:23:55;;;;;;;;;;;;;;;20.71;52.37;96504.34;1048501;28;1324;-54
2021/09/02 00:24:26;;;;;;;;;;;;;;;20.72;52.65;96505.16;1048768;28;1304;-53
2021/09/02 00:24:56;;;;;;;;;;;;;;;20.72;52.33;96505.94;1046814;28;1746;-55
2021/09/02 00:25:26;;;;;;;;;;;;;;;20.71;52.49;96499.06;1048579;28;1241;-55
2021/09/02 00:25:56;;;;;;;;;;;;;;;20.72;52.28;96497.25;1048685;28;1212;-54
2021/09/02 00:26:27;;;;;;;;;;;;;;;20.72;52.31;96502.50;1047732;28;2049;-51
2021/09/02 00:26:57;;;;;;;;;;;;;;;20.71;52.38;96501.72;1047562;28;2028;-54
2021/09/02 00:27:27;;;;;;;;;;;;;;;20.71;52.47;96499.06;1048449;28;1323;-54
2021/09/02 00:27:58;;;;;;;;;;;;;;;20.72;52.07;96499.88;1047476;28;1700;-52
2021/09/02 00:28:28;;;;;;;;;;;;;;;20.71;52.29;96500.94;1051895;28;1205;-50
2021/09/02 00:28:58;;;;;;;;;;;;;;;20.72;52.53;96502.50;1052349;28;1209;-50
2021/09/02 00:29:30;;;;;;;;;;;;;;;20.71;52.32;96504.34;1052116;28;1211;-53
2021/09/02 00:30:00;;;;;;;;;;;;;;;20.71;52.23;96506.97;1052301;28;1437;-56
2021/09/02 00:30:30;;;;;;;;;;;;;;;20.70;52.17;96505.41;1048200;28;1342;-55
2021/09/02 00:31:01;;;;;;;;;;;;;;;20.71;52.32;96503.56;1048275;28;1249;-54
2021/09/02 00:31:31;;;;;;;;;;;;;;;20.71;52.29;96503.56;1048429;28;1280;-56
2021/09/02 00:32:01;;;;;;;;;;;;;;;20.71;52.58;96506.22;1047488;28;2113;-52
2021/09/02 00:32:31;;;;;;;;;;;;;;;20.70;52.18;96497.50;1048617;28;1350;-52
2021/09/02 00:33:03;;;;;;;;;;;;;;;20.72;52.35;96494.59;1048689;28;1122;-54
2021/09/02 00:33:33;;;;;;;;;;;;;;;20.71;52.49;96499.06;1048387;28;1252;-53
2021/09/02 00:34:03;;;;;;;;;;;;;;;20.72;52.61;96495.41;1048721;28;1056;-54
2021/09/02 00:34:34;;;;;;;;;;;;;;;20.71;52.42;96503.56;1048540;28;1276;-55
2021/09/02 00:35:04;;;;;;;;;;;;;;;20.71;52.51;96496.44;1048526;28;1056;-53
2021/09/02 00:35:34;;;;;;;;;;;;;;;20.71;52.44;96499.06;1047588;28;1690;-54
2021/09/02 00:36:05;;;;;;;;;;;;;;;20.70;52.49;96502.78;1047112;28;1730;-55
2021/09/02 00:36:35;;;;;;;;;;;;;;;20.69;52.52;96493.28;1047847;28;1142;-54
2021/09/02 00:37:05;;;;;;;;;;;;;;;20.70;52.43;96496.69;1047617;28;2124;-57
2021/09/02 00:37:36;;;;;;;;;;;;;;;20.69;52.34;96493.28;1048425;28;1189;-55
2021/09/02 00:38:07;;;;;;;;;;;;;;;20.69;52.38;96493.28;1048631;28;1909;-53
2021/09/02 00:38:38;;;;;;;;;;;;;;;20.70;52.29;96499.34;1048567;28;1205;-56
2021/09/02 00:39:08;;;;;;;;;;;;;;;20.71;52.33;96496.44;1048524;28;1079;-55
2021/09/02 00:39:38;;;;;;;;;;;;;;;20.69;52.05;96489.88;1048322;28;1216;-52
2021/09/02 00:40:09;;;;;;;;;;;;;;;20.70;52.37;96496.69;1048549;28;1088;-54
2021/09/02 00:40:39;;;;;;;;;;;;;;;20.68;52.34;96489.06;1048309;28;1265;-55
2021/09/02 00:41:09;;;;;;;;;;;;;;;20.71;52.36;96493.81;1043908;28;1105;-53
2021/09/02 00:41:40;;;;;;;;;;;;;;;20.70;52.20;96492.22;1043887;28;1265;-54
2021/09/02 00:42:10;;;;;;;;;;;;;;;20.72;52.31;96490.13;1043306;28;2124;-54
2021/09/02 00:42:40;;;;;;;;;;;;;;;20.70;52.28;96492.22;1048222;28;1308;-56
2021/09/02 00:43:10;;;;;;;;;;;;;;;20.71;52.28;96493.81;1046087;28;1126;-57
2021/09/02 00:43:41;;;;;;;;;;;;;;;20.71;52.40;96493.81;1048361;28;1268;-56
2021/09/02 00:44:11;;;;;;;;;;;;;;;20.71;52.18;96487.75;1048579;28;1261;-54
2021/09/02 00:44:43;;;;;;;;;;;;;;;20.70;52.21;96497.50;1048138;28;1206;-56
2021/09/02 00:45:13;;;;;;;;;;;;;;;20.70;52.42;96491.44;1048100;28;1066;-54
2021/09/02 00:45:43;;;;;;;;;;;;;;;20.71;52.20;96493.03;1048006;28;1288;-56
2021/09/02 00:46:14;;;;;;;;;;;;;;;20.71;52.56;96491.16;1048620;28;1149;-55
2021/09/02 00:46:44;;;;;;;;;;;;;;;20.70;52.17;96486.97;1048448;28;1220;-54
2021/09/02 00:47:14;;;;;;;;;;;;;;;20.71;52.17;96493.03;1047487;28;2104;-56
2021/09/02 00:47:45;;;;;;;;;;;;;;;20.70;52.30;96491.44;1048369;28;1280;-56
2021/09/02 00:48:15;;;;;;;;;;;;;;;20.70;52.34;96491.44;1047809;28;2199;-54
2021/09/02 00:48:46;;;;;;;;;;;;;;;20.69;52.14;96485.38;1048383;28;1216;-55
2021/09/02 00:49:16;;;;;;;;;;;;;;;20.69;52.38;96489.88;1048684;28;1252;-55
2021/09/02 00:49:46;;;;;;;;;;;;;;;20.69;52.35;96493.28;1048486;28;1236;-54
2021/09/02 00:50:17;;;;;;;;;;;;;;;20.70;52.20;96492.22;1048564;28;1189;-52
2021/09/02 00:50:48;;;;;;;;;;;;;;;20.70;52.32;96486.97;1048493;28;1260;-55
2021/09/02 00:51:18;;;;;;;;;;;;;;;20.70;52.18;96486.97;1047963;28;2064;-60
2021/09/02 00:51:49;;;;;;;;;;;;;;;20.71;52.25;96485.13;1047937;28;2096;-55
2021/09/02 00:52:20;;;;;;;;;;;;;;;20.71;52.47;96488.53;1047673;28;1497;-56
2021/09/02 00:52:50;;;;;;;;;;;;;;;20.72;52.24;96487.50;1046993;28;1599;-54
2021/09/02 00:53:20;;;;;;;;;;;;;;;20.72;52.12;96484.06;1048390;28;1313;-56
2021/09/02 00:53:51;;;;;;;;;;;;;;;20.70;52.17;96479.06;1044126;28;1021;-52
2021/09/02 00:54:21;;;;;;;;;;;;;;;20.71;52.33;96488.53;1048110;28;1146;-55
2021/09/02 00:54:52;;;;;;;;;;;;;;;20.71;52.35;96480.63;1048330;28;1122;-56
2021/09/02 00:55:23;;;;;;;;;;;;;;;20.70;52.28;96480.91;1048220;28;1222;-56
2021/09/02 00:55:53;;;;;;;;;;;;;;;20.70;52.03;96481.69;1048483;28;1119;-55
2021/09/02 00:56:27;;;;;;;;;;;;;;;20.71;52.34;96479.84;1048469;28;1225;-57
2021/09/02 00:56:57;;;;;;;;;;;;;;;20.70;52.12;96479.06;1047489;28;2071;-54
2021/09/02 00:57:28;;;;;;;;;;;;;;;20.70;52.29;96481.69;1048501;28;1297;-55
2021/09/02 00:57:59;;;;;;;;;;;;;;;20.71;52.36;96478.00;1048770;28;1037;-56
2021/09/02 00:58:30;;;;;;;;;;;;;;;20.72;52.32;96476.97;1048271;28;1292;-56
2021/09/02 00:59:00;;;;;;;;;;;;;;;20.71;52.32;96482.50;1048468;28;1339;-56
2021/09/02 00:59:30;;;;;;;;;;;;;;;20.72;52.09;96482.22;1048575;28;1331;-52
2021/09/02 01:00:03;;;;;;;;;;;;;;;20.70;51.96;96484.34;1048535;28;1045;-56
2021/09/02 01:00:33;;;;;;;;;;;;;;;20.70;51.99;96480.91;1048358;28;1224;-56
2021/09/02 01:01:04;;;;;;;;;;;;;;;20.69;51.92;96480.09;1048546;28;1053;-54
2021/09/02 01:01:34;;;;;;;;;;;;;;;20.70;51.99;96476.44;1047746;28;1821;-55
2021/09/02 01:02:04;;;;;;;;;;;;;;;20.70;52.12;96480.91;1047569;28;2049;-56
2021/09/02 01:02:35;;;;;;;;;;;;;;;20.70;52.05;96484.34;1048275;28;1166;-53
2021/09/02 01:03:05;;;;;;;;;;;;;;;20.70;52.04;96476.44;1048639;28;1068;-56
2021/09/02 01:03:35;;;;;;;;;;;;;;;20.69;52.33;96477.47;1044453;28;1270;-56
2021/09/02 01:04:06;;;;;;;;;;;;;;;20.70;52.06;96484.34;1045007;28;1045;-53
2021/09/02 01:04:36;;;;;;;;;;;;;;;20.70;52.35;96479.06;1044805;28;1396;-49
2021/09/02 01:05:07;;;;;;;;;;;;;;;20.71;52.49;96482.50;1040834;28;2076;-51
2021/09/02 01:05:38;;;;;;;;;;;;;;;20.73;52.31;96477.75;1044722;28;1191;-51
2021/09/02 01:06:08;;;;;;;;;;;;;;;20.73;52.38;96481.16;1044089;28;1686;-54
2021/09/02 01:06:38;;;;;;;;;;;;;;;20.72;51.95;96484.88;1043842;28;2095;-54
2021/09/02 01:07:09;;;;;;;;;;;;;;;20.72;52.27;96482.22;1044000;28;2153;-51
2021/09/02 01:07:39;;;;;;;;;;;;;;;20.71;52.05;96479.84;1044999;28;1372;-54
2021/09/02 01:08:10;;;;;;;;;;;;;;;20.72;52.21;96484.88;1044986;28;1242;-54
2021/09/02 01:08:42;;;;;;;;;;;;;;;20.70;52.01;96486.97;1043879;28;2117;-56
2021/09/02 01:09:13;;;;;;;;;;;;;;;20.70;51.82;96481.69;1045050;28;1620;-53
2021/09/02 01:09:44;;;;;;;;;;;;;;;20.69;52.33;96485.38;1049113;28;1241;-55
2021/09/02 01:10:15;;;;;;;;;;;;;;;20.71;52.36;96482.50;1049100;28;1280;-56
2021/09/02 01:11:02;;;;;;;;;;;;;;;20.72;52.43;96484.88;1048730;28;1312;-56
2021/09/02 01:11:53;;;;;;;;;;;;;;;20.71;52.33;96487.75;1048035;28;1370;-54
2021/09/02 01:12:30;;;;;;;;;;;;;;;20.71;52.20;96487.75;1053374;28;2482;-56
2021/09/02 01:13:00;;;;;;;;;;;;;;;20.70;52.44;96481.69;1048994;28;1462;-56
2021/09/02 01:13:36;;;;;;;;;;;;;;;20.70;51.97;96484.34;1044707;28;1320;-54
2021/09/02 01:14:07;;;;;;;;;;;;;;;20.70;51.99;96484.34;1044867;28;1089;-55
2021/09/02 01:14:38;;;;;;;;;;;;;;;20.70;52.12;96481.69;1045227;28;1589;-56
2021/09/02 01:15:18;;;;;;;;;;;;;;;20.72;52.22;96481.44;1053061;28;1071;-56
2021/09/02 01:16:05;;;;;;;;;;;;;;;20.72;52.07;96489.34;1053102;28;1327;-56
2021/09/02 01:16:55;;;;;;;;;;;;;;;20.70;52.00;96486.97;1050250;28;2081;-56
2021/09/02 01:17:28;;;;;;;;;;;;;;;20.71;52.03;96490.41;1040947;28;2101;-54
2021/09/02 01:18:01;;;;;;;;;;;;;;;20.70;51.93;96480.91;1042858;28;1914;-55
2021/09/02 01:18:40;;;;;;;;;;;;;;;20.71;51.82;96491.16;1044556;28;1147;-56
2021/09/02 01:19:10;;;;;;;;;;;;;;;20.71;51.98;96485.13;1046153;28;1250;-53
2021/09/02 01:19:41;;;;;;;;;;;;;;;20.70;51.99;96480.91;1048809;28;1229;-55
2021/09/02 01:20:11;;;;;;;;;;;;;;;20.72;52.24;96482.22;1048985;28;1158;-55
2021/09/02 01:20:42;;;;;;;;;;;;;;;20.73;52.38;96486.44;1049203;28;1260;-56
2021/09/02 01:21:14;;;;;;;;;;;;;;;20.72;52.25;96484.88;1048730;28;1371;-54
2021/09/02 01:22:04;;;;;;;;;;;;;;;20.73;52.27;96486.44;1045674;28;2033;-52
2021/09/02 01:22:57;;;;;;;;;;;;;;;20.73;52.02;96485.66;1048947;28;1068;-53
2021/09/02 01:23:48;;;;;;;;;;;;;;;20.71;51.89;96485.13;1048528;28;1152;-55
2021/09/02 01:24:39;;;;;;;;;;;;;;;20.71;52.10;96482.50;1047603;28;1117;-50
2021/09/02 01:25:10;;;;;;;;;;;;;;;20.70;51.81;96486.97;1049166;28;1139;-52
2021/09/02 01:25:42;;;;;;;;;;;;;;;20.70;51.94;96483.53;1048480;28;1351;-51
2021/09/02 01:26:16;;;;;;;;;;;;;;;20.70;51.90;96484.34;1044839;28;1411;-54
2021/09/02 01:26:47;;;;;;;;;;;;;;;20.71;52.05;96483.25;1044583;28;1257;-53
2021/09/02 01:27:20;;;;;;;;;;;;;;;20.69;51.76;96480.09;1043706;28;2222;-53
2021/09/02 01:27:51;;;;;;;;;;;;;;;20.71;51.86;96485.91;1048816;28;1351;-56
2021/09/02 01:28:21;;;;;;;;;;;;;;;20.70;51.92;96486.97;1049356;28;1279;-54
2021/09/02 01:28:52;;;;;;;;;;;;;;;20.69;52.02;96480.09;1049006;28;1119;-55
2021/09/02 01:29:22;;;;;;;;;;;;;;;20.68;52.00;96481.16;1048809;28;1301;-53
2021/09/02 01:29:55;;;;;;;;;;;;;;;20.68;51.98;96478.53;1048589;28;1199;-50
2021/09/02 01:30:26;;;;;;;;;;;;;;;20.67;51.86;96482.19;1048903;28;1312;-54
2021/09/02 01:30:56;;;;;;;;;;;;;;;20.69;52.13;96485.38;1047094;28;1350;-55
2021/09/02 01:31:26;;;;;;;;;;;;;;;20.69;51.93;96482.72;1048391;28;2189;-55
2021/09/02 01:31:57;;;;;;;;;;;;;;;20.71;52.40;96482.50;1049000;28;1104;-54
2021/09/02 01:32:28;;;;;;;;;;;;;;;20.72;51.99;96481.44;1047805;28;2070;-52
2021/09/02 01:32:58;;;;;;;;;;;;;;;20.71;52.22;96483.25;1048909;28;1049;-54
2021/09/02 01:33:28;;;;;;;;;;;;;;;20.72;52.38;96481.44;1048889;28;1297;-55
2021/09/02 01:33:59;;;;;;;;;;;;;;;20.71;51.86;96483.25;1048645;28;1143;-56
2021/09/02 01:34:29;;;;;;;;;;;;;;;20.71;51.93;96483.25;1048768;28;1217;-56
2021/09/02 01:34:59;;;;;;;;;;;;;;;20.70;51.86;96478.25;1048846;28;1166;-55
2021/09/02 01:35:32;;;;;;;;;;;;;;;20.70;51.85;96481.69;1048806;28;1262;-54
2021/09/02 01:36:02;;;;;;;;;;;;;;;20.70;51.92;96480.91;1048167;28;1793;-53
2021/09/02 01:36:32;;;;;;;;;;;;;;;20.69;52.08;96480.09;1046839;28;980;-50
2021/09/02 01:37:03;;;;;;;;;;;;;;;20.70;52.07;96484.34;1056551;28;2035;-56
2021/09/02 01:37:40;;;;;;;;;;;;;;;20.71;52.14;96482.50;1055223;28;1600;-54
2021/09/02 01:38:11;;;;;;;;;;;;;;;20.72;52.29;96482.22;1056785;28;2028;-55
2021/09/02 01:38:41;;;;;;;;;;;;;;;20.73;51.96;96480.41;1055011;28;1237;-55
2021/09/02 01:39:18;;;;;;;;;;;;;;;20.72;51.79;96476.97;1049205;28;1260;-53
2021/09/02 01:39:49;;;;;;;;;;;;;;;20.72;52.04;96484.88;1048882;28;1328;-53
2021/09/02 01:40:20;;;;;;;;;;;;;;;20.71;51.78;96475.34;1049076;28;1146;-51
2021/09/02 01:40:51;;;;;;;;;;;;;;;20.73;52.10;96480.41;1049053;28;1237;-52
2021/09/02 01:41:22;;;;;;;;;;;;;;;20.72;51.99;96479.59;1049208;28;1248;-52
2021/09/02 01:41:52;;;;;;;;;;;;;;;20.72;52.03;96482.22;1049162;28;1149;-52
2021/09/02 01:42:23;;;;;;;;;;;;;;;20.73;52.03;96483.81;1046263;28;2013;-55
2021/09/02 01:42:53;;;;;;;;;;;;;;;20.74;51.92;96477.50;1049197;28;1114;-53
2021/09/02 01:43:23;;;;;;;;;;;;;;;20.73;52.02;96465.34;1049367;28;1221;-55
2021/09/02 01:43:54;;;;;;;;;;;;;;;20.74;52.15;96477.50;1048108;28;2014;-52
2021/09/02 01:44:24;;;;;;;;;;;;;;;20.73;51.93;96473.25;1048057;28;2100;-55
2021/09/02 01:44:55;;;;;;;;;;;;;;;20.72;51.82;96470.91;1049212;28;1308;-53
2021/09/02 01:45:25;;;;;;;;;;;;;;;20.71;51.91;96479.84;1049335;28;1374;-56
2021/09/02 01:45:56;;;;;;;;;;;;;;;20.70;51.92;96476.44;1048953;28;1296;-55
2021/09/02 01:46:26;;;;;;;;;;;;;;;20.69;51.98;96464.28;1048643;28;1291;-52
2021/09/02 01:46:56;;;;;;;;;;;;;;;20.69;51.83;96469.56;1049194;28;978;-53
2021/09/02 01:47:27;;;;;;;;;;;;;;;20.68;51.77;96473.25;1047360;28;1997;-54
2021/09/02 01:47:57;;;;;;;;;;;;;;;20.72;52.05;96470.91;1048001;28;1067;-54
2021/09/02 01:48:34;;;;;;;;;;;;;;;20.72;51.95;96471.69;1048917;28;1193;-51
2021/09/02 01:49:05;;;;;;;;;;;;;;;20.72;51.88;96463.78;1049082;28;1080;-57
2021/09/02 01:49:35;;;;;;;;;;;;;;;20.72;51.85;96473.53;1049212;28;1231;-54
2021/09/02 01:50:12;;;;;;;;;;;;;;;20.70;52.13;96471.16;1049229;28;1088;-51
2021/09/02 01:50:42;;;;;;;;;;;;;;;20.71;52.01;96472.72;1048903;28;1285;-54
2021/09/02 01:51:13;;;;;;;;;;;;;;;20.71;51.75;96474.59;1049414;28;1162;-52
2021/09/02 01:51:44;;;;;;;;;;;;;;;20.71;51.45;96470.09;1049159;28;1272;-53
2021/09/02 01:52:14;;;;;;;;;;;;;;;20.70;51.66;96471.16;1048288;28;2076;-54
2021/09/02 01:52:45;;;;;;;;;;;;;;;20.72;52.07;96465.63;1048756;28;1303;-51
2021/09/02 01:53:15;;;;;;;;;;;;;;;20.72;51.87;96474.31;1049329;28;1197;-51
2021/09/02 01:53:45;;;;;;;;;;;;;;;20.71;51.77;96462.19;1049118;28;1224;-54
2021/09/02 01:54:16;;;;;;;;;;;;;;;20.71;51.81;96471.97;1049166;28;1335;-52
2021/09/02 01:54:46;;;;;;;;;;;;;;;20.70;51.58;96471.16;1049029;28;1244;-53
2021/09/02 01:55:16;;;;;;;;;;;;;;;20.68;51.85;96468.00;1049393;28;1248;-53
2021/09/02 01:55:47;;;;;;;;;;;;;;;20.68;51.70;96468.00;1048968;28;1260;-55
2021/09/02 01:56:17;;;;;;;;;;;;;;;20.70;51.72;96470.34;1047793;28;1821;-53
2021/09/02 01:56:48;;;;;;;;;;;;;;;20.69;51.89;96466.91;1048862;28;1134;-55
2021/09/02 01:57:18;;;;;;;;;;;;;;;20.71;52.12;96456.16;1048252;28;2132;-53
2021/09/02 01:57:48;;;;;;;;;;;;;;;20.69;51.93;96459.03;1048979;28;1182;-52
2021/09/02 01:58:19;;;;;;;;;;;;;;;20.70;51.93;96467.72;1049313;28;1981;-51
2021/09/02 01:58:49;;;;;;;;;;;;;;;20.71;51.92;96462.19;1048249;28;1201;-49
2021/09/02 01:59:19;;;;;;;;;;;;;;;20.70;51.92;96468.53;1048878;28;1151;-54
2021/09/02 01:59:49;;;;;;;;;;;;;;;20.72;51.75;96463.00;1048759;28;1273;-54
2021/09/02 02:00:20;;;;;;;;;;;;;;;20.72;51.98;96463.78;1048939;28;1217;-54
2021/09/02 02:00:50;;;;;;;;;;;;;;;20.72;51.89;96457.72;1048713;28;1241;-51
2021/09/02 02:01:20;;;;;;;;;;;;;;;20.70;51.85;96460.63;1049341;28;1272;-55
2021/09/02 02:01:51;;;;;;;;;;;;;;;20.71;51.81;96459.56;1048195;28;2005;-50
2021/09/02 02:02:21;;;;;;;;;;;;;;;20.73;51.84;96457.47;1047788;28;2193;-56
2021/09/02 02:02:51;;;;;;;;;;;;;;;20.74;51.56;96464.31;1047965;28;1186;-53
2021/09/02 02:03:22;;;;;;;;;;;;;;;20.74;51.66;96460.88;1048895;28;1292;-53
2021/09/02 02:03:52;;;;;;;;;;;;;;;20.72;51.52;96458.53;1043933;28;1634;-49
2021/09/02 02:04:22;;;;;;;;;;;;;;;20.70;51.54;96460.63;1048857;28;1118;-53
2021/09/02 02:04:53;;;;;;;;;;;;;;;20.70;52.03;96455.34;1048678;28;1127;-53
2021/09/02 02:05:23;;;;;;;;;;;;;;;20.71;51.73;96462.19;1048897;28;1214;-50
2021/09/02 02:05:53;;;;;;;;;;;;;;;20.72;51.71;96457.72;1048813;28;1174;-55
2021/09/02 02:06:24;;;;;;;;;;;;;;;20.72;51.82;96457.72;1046109;28;1850;-55
2021/09/02 02:06:54;;;;;;;;;;;;;;;20.73;51.72;96462.72;1049059;28;1154;-52
2021/09/02 02:07:24;;;;;;;;;;;;;;;20.73;51.82;96460.09;1048022;28;2014;-56
2021/09/02 02:07:54;;;;;;;;;;;;;;;20.73;51.72;96459.31;1049067;28;1150;-50
2021/09/02 02:08:25;;;;;;;;;;;;;;;20.73;52.00;96460.09;1049261;28;1208;-50
2021/09/02 02:08:55;;;;;;;;;;;;;;;20.71;51.66;96459.56;1048835;28;1154;-51
2021/09/02 02:09:26;;;;;;;;;;;;;;;20.71;51.96;96458.78;1048628;28;1217;-55
2021/09/02 02:09:56;;;;;;;;;;;;;;;20.71;51.69;96459.56;1048792;28;1336;-53
2021/09/02 02:10:27;;;;;;;;;;;;;;;20.70;51.78;96459.81;1048614;28;1261;-56
2021/09/02 02:10:57;;;;;;;;;;;;;;;20.71;51.79;96456.16;1048151;28;2677;-55
2021/09/02 02:11:27;;;;;;;;;;;;;;;20.71;51.67;96458.78;1048843;28;1237;-54
2021/09/02 02:11:57;;;;;;;;;;;;;;;20.69;51.64;96452.97;1048925;28;1100;-51
2021/09/02 02:12:28;;;;;;;;;;;;;;;20.71;51.90;96454.28;1046960;28;2095;-53
2021/09/02 02:12:59;;;;;;;;;;;;;;;20.72;51.79;96453.25;1048890;28;1120;-55
2021/09/02 02:13:29;;;;;;;;;;;;;;;20.71;51.73;96454.28;1048482;28;1268;-54
2021/09/02 02:13:59;;;;;;;;;;;;;;;20.72;51.81;96453.25;1049013;28;1049;-55
2021/09/02 02:14:30;;;;;;;;;;;;;;;20.72;51.67;96460.34;1049170;28;1134;-56
2021/09/02 02:15:00;;;;;;;;;;;;;;;20.71;51.68;96453.50;1047704;28;1659;-52
2021/09/02 02:15:30;;;;;;;;;;;;;;;20.72;51.97;96455.88;1045574;28;1538;-54
2021/09/02 02:16:01;;;;;;;;;;;;;;;20.70;51.75;96450.09;1044685;28;1093;-52
2021/09/02 02:16:32;;;;;;;;;;;;;;;20.69;51.79;96456.38;1040452;28;1143;-54
2021/09/02 02:17:02;;;;;;;;;;;;;;;20.70;52.05;96447.44;1040584;28;1457;-55
2021/09/02 02:17:32;;;;;;;;;;;;;;;20.71;51.78;96456.16;1043559;28;2063;-54
2021/09/02 02:18:03;;;;;;;;;;;;;;;20.70;51.66;96455.34;1048665;28;1902;-56
2021/09/02 02:18:33;;;;;;;;;;;;;;;20.71;52.06;96451.66;1048972;28;1201;-55
2021/09/02 02:19:03;;;;;;;;;;;;;;;20.71;51.91;96449.03;1049023;28;1076;-53
2021/09/02 02:19:34;;;;;;;;;;;;;;;20.72;51.87;96452.44;1048961;28;1224;-56
2021/09/02 02:20:04;;;;;;;;;;;;;;;20.72;51.85;96452.44;1049094;28;1135;-52
2021/09/02 02:20:35;;;;;;;;;;;;;;;20.71;51.85;96451.66;1049082;28;1275;-53
2021/09/02 02:21:06;;;;;;;;;;;;;;;20.71;51.81;96454.28;1049134;28;1069;-56
2021/09/02 02:21:36;;;;;;;;;;;;;;;20.72;52.07;96452.44;1048889;28;1224;-54
2021/09/02 02:22:06;;;;;;;;;;;;;;;20.71;51.76;96451.66;1048964;28;1076;-56
2021/09/02 02:22:37;;;;;;;;;;;;;;;20.72;51.84;96455.09;1047872;28;2001;-55
2021/09/02 02:23:07;;;;;;;;;;;;;;;20.70;51.78;96446.66;1049037;28;1072;-53
2021/09/02 02:23:38;;;;;;;;;;;;;;;20.69;51.96;96456.38;1047542;28;1677;-55
2021/09/02 02:24:08;;;;;;;;;;;;;;;20.70;51.54;96450.09;1048850;28;1096;-55
2021/09/02 02:24:38;;;;;;;;;;;;;;;20.67;51.71;96447.94;1049126;28;1205;-53
2021/09/02 02:25:09;;;;;;;;;;;;;;;20.69;51.68;96453.75;1046469;28;1649;-56
2021/09/02 02:25:39;;;;;;;;;;;;;;;20.69;51.70;96451.13;1048576;28;1311;-52
2021/09/02 02:26:09;;;;;;;;;;;;;;;20.70;51.85;96451.91;1048504;28;1072;-56
2021/09/02 02:26:40;;;;;;;;;;;;;;;20.69;51.77;96448.47;1048696;28;1221;-57
2021/09/02 02:27:10;;;;;;;;;;;;;;;20.70;51.84;96446.66;1044496;28;1430;-56
2021/09/02 02:27:41;;;;;;;;;;;;;;;20.70;51.88;96450.09;1047864;28;2124;-54
2021/09/02 02:28:12;;;;;;;;;;;;;;;20.69;51.96;96443.22;1048526;28;1324;-54
2021/09/02 02:28:42;;;;;;;;;;;;;;;20.69;51.72;96451.13;1044505;28;1554;-54
2021/09/02 02:29:12;;;;;;;;;;;;;;;20.70;51.61;96450.09;1048782;28;1111;-53
2021/09/02 02:29:43;;;;;;;;;;;;;;;20.69;51.61;96447.72;1048746;28;1214;-52
2021/09/02 02:30:14;;;;;;;;;;;;;;;20.69;51.84;96445.84;1048637;28;1269;-53
2021/09/02 02:30:44;;;;;;;;;;;;;;;20.71;52.04;96445.63;1048586;28;1229;-52
2021/09/02 02:31:15;;;;;;;;;;;;;;;20.69;51.82;96448.47;1048790;28;1206;-54
2021/09/02 02:31:45;;;;;;;;;;;;;;;20.69;52.14;96443.22;1049074;28;1186;-53
2021/09/02 02:32:16;;;;;;;;;;;;;;;20.70;51.77;96442.19;1048282;28;1374;-54
2021/09/02 02:32:46;;;;;;;;;;;;;;;20.71;51.69;96448.25;1047159;28;2307;-52
2021/09/02 02:33:16;;;;;;;;;;;;;;;20.72;51.58;96445.34;1048628;28;1202;-55
2021/09/02 02:33:47;;;;;;;;;;;;;;;20.71;51.44;96445.63;1048672;28;1225;-55
2021/09/02 02:34:17;;;;;;;;;;;;;;;20.71;51.77;96449.03;1048585;28;1174;-53
2021/09/02 02:34:47;;;;;;;;;;;;;;;20.70;51.50;96441.38;1048854;28;1252;-55
2021/09/02 02:35:18;;;;;;;;;;;;;;;20.71;51.40;96445.63;1049303;28;1169;-51
2021/09/02 02:35:48;;;;;;;;;;;;;;;20.70;51.49;96446.66;1048881;28;1300;-54
2021/09/02 02:36:18;;;;;;;;;;;;;;;20.71;51.53;96442.97;1047178;28;1754;-55
2021/09/02 02:36:49;;;;;;;;;;;;;;;20.72;51.47;96444.53;1048936;28;1284;-54
2021/09/02 02:37:19;;;;;;;;;;;;;;;20.72;51.65;96445.34;1047515;28;2151;-56
2021/09/02 02:37:49;;;;;;;;;;;;;;;20.73;51.46;96440.88;1048356;28;1501;-54
2021/09/02 02:38:20;;;;;;;;;;;;;;;20.74;51.63;96443.25;1048470;28;1977;-54
2021/09/02 02:38:50;;;;;;;;;;;;;;;20.72;51.52;96445.34;1048457;28;1270;-54
2021/09/02 02:39:20;;;;;;;;;;;;;;;20.72;51.37;96445.34;1048637;28;1167;-55
2021/09/02 02:39:51;;;;;;;;;;;;;;;20.72;51.31;96442.72;1049038;28;1205;-55
2021/09/02 02:40:21;;;;;;;;;;;;;;;20.71;51.48;96443.75;1048906;28;1204;-54
2021/09/02 02:40:51;;;;;;;;;;;;;;;20.70;51.37;96439.53;1048803;28;1248;-55
2021/09/02 02:41:22;;;;;;;;;;;;;;;20.69;51.58;96447.72;1049157;28;1354;-53
2021/09/02 02:41:52;;;;;;;;;;;;;;;20.71;51.54;96440.34;1048980;28;1347;-51
2021/09/02 02:42:22;;;;;;;;;;;;;;;20.71;51.53;96441.13;1047862;28;2064;-56
2021/09/02 02:42:53;;;;;;;;;;;;;;;20.71;51.45;96441.13;1048269;28;1739;-54
2021/09/02 02:43:24;;;;;;;;;;;;;;;20.72;51.30;96447.19;1048761;28;1126;-52
2021/09/02 02:43:54;;;;;;;;;;;;;;;20.71;51.29;96442.97;1048671;28;1218;-54
2021/09/02 02:44:24;;;;;;;;;;;;;;;20.72;51.45;96441.91;1048463;28;1237;-56
2021/09/02 02:44:55;;;;;;;;;;;;;;;20.71;51.54;96442.97;1047026;28;1782;-55